Latest Weather Observations for Sheoaks

IDV60901

Issued at 6:25 pm EDT Saturday 1 November 2014 (issued every 10 minutes, with the page automatically refreshed every 10 minutes)

About weather observations | Map of Melbourne area stations | Latest observations for Melbourne area | Other Formats
Station Details ID: 087168 Name: SHEOAKS Lat: -37.91 Lon: 144.13 Height: 236.7 m
Data from the previous 72 hours. | See also: Recent months at Sheoaks
Date/Time
EDT
Tmp

°C
App
Tmp
°C
Dew
Point
°C
Rel
Hum
%
Delta-T

°C
Wind Press
QNH
hPa
Press
MSL
hPa
Rain
since
9 am
mm
Dir
 
Spd
km/h
Gust
km/h
Spd
kts
Gust
kts
01/06:00pm 11.6 5.0 1.8 51 4.2 WSW 26 46 14 25 1011.7 1011.3 1.6
01/05:30pm 10.8 2.5 2.4 56 3.6 WSW 35 61 19 33 1011.0 1010.7 1.6
01/05:00pm 11.4 3.4 1.4 50 4.3 WSW 33 59 18 32 1010.8 1010.5 1.6
01/04:30pm 12.1 5.0 1.1 47 4.7 W 28 50 15 27 1009.8 1009.5 1.6
01/04:04pm 11.2 2.9 2.0 53 4.0 W 35 59 19 32 1009.7 1009.4 1.6
01/04:00pm 11.1 2.4 2.2 54 3.9 W 37 50 20 27 1009.6 1009.3 1.6
01/03:30pm 11.5 4.3 3.0 56 3.8 W 30 48 16 26 1009.5 1009.2 1.6
01/03:00pm 11.3 3.5 1.8 52 4.1 WSW 32 54 17 29 1009.2 1008.9 1.6
01/02:30pm 11.7 4.4 4.7 62 3.2 W 32 54 17 29 1008.3 1008.0 1.6
01/02:02pm 10.5 4.0 4.9 68 2.6 WSW 28 54 15 29 1008.2 1007.9 1.6
01/02:00pm 11.9 5.7 4.4 60 3.4 WSW 26 48 14 26 1008.1 1007.7 1.6
01/01:30pm 11.5 4.4 5.4 66 2.8 WSW 32 50 17 27 1007.9 1007.5 1.6
01/01:00pm 11.4 4.8 5.9 69 2.6 WSW 30 50 16 27 1007.6 1007.2 1.6
01/12:54pm 10.6 4.2 5.2 69 2.5 W 28 46 15 25 1007.6 1007.2 1.6
01/12:30pm 10.1 4.0 6.8 80 1.6 W 28 43 15 23 1007.4 1007.0 1.6
01/12:00pm 11.9 5.8 6.8 71 2.5 W 28 56 15 30 1006.5 1006.2 1.4
01/11:30am 9.3 3.4 7.6 89 0.8 W 28 50 15 27 1006.6 1006.3 1.4
01/11:16am 11.7 4.9 7.0 73 2.3 W 32 63 17 34 1006.1 1005.8 0.8
01/11:00am 11.6 7.8 9.7 88 1.0 W 20 32 11 17 1006.1 1005.8 0.8
01/10:30am 10.5 7.0 8.6 88 0.9 WSW 17 28 9 15 1005.7 1005.6 0.4
01/10:00am 12.4 6.7 6.5 67 2.9 W 26 43 14 23 1005.1 1005.0 0.2
01/09:30am 11.7 6.4 8.4 80 1.6 W 26 41 14 22 1004.7 1004.6 0.2
01/09:00am 10.4 5.8 8.2 86 1.1 W 22 33 12 18 1004.6 1004.5 6.0
01/08:30am 10.1 5.2 8.5 90 0.8 W 24 35 13 19 1004.2 1004.1 -
01/08:19am 9.2 3.5 8.3 94 0.4 WSW 28 54 15 29 1003.9 1003.8 -
01/08:00am 10.4 6.1 9.3 93 0.6 W 22 35 12 19 1003.5 1003.4 -
01/07:33am 10.6 4.6 10.0 96 0.3 W 32 56 17 30 1002.5 1002.4 -
01/07:30am 10.8 5.2 10.2 96 0.3 W 30 48 16 26 1002.4 1002.3 -
01/07:04am 11.1 5.9 10.2 94 0.5 WSW 28 50 15 27 1001.8 1001.7 -
01/07:00am 11.1 6.6 10.2 94 0.5 WSW 24 43 13 23 1001.7 1001.6 -
01/06:48am 11.9 6.8 10.5 91 0.7 W 28 48 15 26 1001.4 1001.3 -
01/06:30am 12.1 7.4 10.7 91 0.7 W 26 35 14 19 1001.4 1001.3 -
01/06:00am 11.9 8.4 10.8 93 0.6 WNW 20 32 11 17 1001.2 1001.1 -
01/05:30am 12.2 8.5 11.4 95 0.4 W 22 35 12 19 1001.1 1001.0 -
01/05:00am 12.4 9.6 11.5 94 0.5 W 17 28 9 15 1000.2 1000.1 -
01/04:30am 12.5 10.5 11.4 93 0.6 W 13 22 7 12 999.7 999.6 -
01/04:00am 13.1 11.5 10.3 83 1.5 W 9 13 5 7 1000.1 1000.0 -
01/03:30am 13.9 11.3 9.5 75 2.3 W 13 20 7 11 999.6 999.5 -
01/03:00am 14.0 11.4 9.4 74 2.4 WNW 13 20 7 11 999.7 999.6 -
01/02:30am 14.0 11.2 10.0 77 2.1 WNW 15 28 8 15 1000.1 1000.0 -
01/02:00am 14.2 10.2 10.6 79 1.9 WNW 22 33 12 18 1000.7 1000.6 0.0
01/01:30am 14.2 10.7 11.0 81 1.7 W 20 33 11 18 1000.6 1000.5 0.0
01/01:00am 14.4 11.7 11.6 83 1.5 W 17 32 9 17 1000.5 1000.4 0.0
01/12:30am 14.8 11.2 11.8 82 1.6 W 22 35 12 19 1000.9 1000.8 0.0
01/12:00am 15.3 10.8 11.5 78 2.1 W 26 33 14 18 1000.3 1000.2 0.0
 
Date/Time
EDT
Tmp

°C
App
Tmp
°C
Dew
Point
°C
Rel
Hum
%
Delta-T

°C
Wind Press
QNH
hPa
Press
MSL
hPa
Rain
since
9 am
mm
Dir
 
Spd
km/h
Gust
km/h
Spd
kts
Gust
kts
31/11:30pm 16.0 14.4 11.4 74 2.5 W 11 17 6 9 1000.1 1000.0 0.0
31/11:00pm 17.6 12.0 10.2 62 4.0 W 30 56 16 30 1001.1 1001.0 0.0
31/10:58pm 17.9 12.6 9.8 59 4.3 W 28 56 15 30 1001.3 1001.2 0.0
31/10:57pm 18.1 12.7 9.5 57 4.6 W 28 46 15 25 1001.3 1001.2 0.0
31/10:30pm 19.5 15.0 6.3 42 6.7 WSW 19 32 10 17 999.3 999.1 0.0
31/10:00pm 23.1 17.0 4.6 30 9.3 W 26 50 14 27 999.9 999.8 0.0
31/09:59pm 23.7 17.6 4.6 29 9.6 W 26 50 14 27 999.8 999.7 0.0
31/09:30pm 24.5 20.4 4.3 27 10.1 N 15 20 8 11 997.6 997.5 0.0
31/09:00pm 23.9 21.0 4.8 29 9.7 N 9 15 5 8 997.6 997.5 0.0
31/08:30pm 24.9 22.3 4.1 26 10.4 N 7 11 4 6 998.0 997.9 0.0
31/08:00pm 26.3 22.9 4.1 24 11.3 N 11 15 6 8 998.4 998.2 0.0
31/07:30pm 28.4 25.0 4.0 21 12.5 NNW 11 17 6 9 998.5 998.3 0.0
31/07:00pm 29.7 25.7 2.9 18 13.7 NNW 13 19 7 10 998.8 998.6 0.0
31/06:30pm 30.4 26.0 2.6 17 14.1 N 15 24 8 13 999.1 998.9 0.0
31/06:00pm 30.9 25.7 2.2 16 14.6 NNW 19 30 10 16 999.6 999.5 0.0
31/05:30pm 30.2 24.9 1.6 16 14.2 NW 19 30 10 16 1000.2 1000.1 0.0
31/05:02pm 31.0 23.7 2.3 16 14.5 NW 30 50 16 27 1000.5 1000.4 0.0
31/05:00pm 30.7 22.9 2.0 16 14.5 NW 32 50 17 27 1000.5 1000.4 0.0
31/04:39pm 30.9 23.0 1.3 15 14.7 NNW 32 52 17 28 1000.6 1000.5 0.0
31/04:30pm 30.8 23.4 2.1 16 14.4 NNW 30 46 16 25 1000.9 1000.8 0.0
31/04:00pm 30.7 23.6 1.1 15 14.7 NNW 28 52 15 28 1001.0 1000.9 0.0
31/03:35pm 30.4 22.2 2.6 17 14.1 NNW 35 63 19 34 1001.3 1001.2 0.0
31/03:30pm 30.3 22.4 2.5 17 14.0 NNW 33 46 18 25 1001.5 1001.4 0.0
31/03:07pm 30.1 22.8 2.4 17 13.9 NNW 30 54 16 29 1002.0 1001.9 0.0
31/03:00pm 29.6 21.8 2.8 18 13.6 NNW 33 48 18 26 1002.1 1002.0 0.0
31/02:30pm 28.6 21.3 2.7 19 13.0 NNW 30 48 16 26 1002.9 1002.7 0.0
31/02:28pm 28.7 21.8 2.8 19 13.0 NNW 28 48 15 26 1002.9 1002.7 0.0
31/02:00pm 26.9 19.2 2.1 20 12.2 NNW 32 48 17 26 1003.5 1003.4 0.0
31/01:34pm 28.1 20.8 2.3 19 12.8 N 30 48 16 26 1003.7 1003.6 0.0
31/01:30pm 27.4 21.0 3.2 21 12.1 N 26 43 14 23 1003.8 1003.7 0.0
31/01:10pm 26.6 19.9 3.8 23 11.5 NNW 28 48 15 26 1004.4 1004.3 0.0
31/01:00pm 27.4 22.2 5.6 25 11.4 NNW 22 35 12 19 1004.6 1004.5 0.0
31/12:30pm 25.8 20.8 6.4 29 10.2 N 22 35 12 19 1005.3 1005.2 0.0
31/12:00pm 25.2 20.2 6.4 30 9.9 N 22 33 12 18 1006.0 1005.9 0.0
31/11:30am 25.1 18.8 5.8 29 10.0 N 28 37 15 20 1006.6 1006.5 0.0
31/11:00am 24.4 20.3 8.0 35 8.8 NNW 19 30 10 16 1007.4 1007.3 0.0
31/10:30am 22.7 19.8 8.0 39 7.8 NNW 13 19 7 10 1008.3 1008.2 0.0
31/10:00am 21.3 19.2 6.8 39 7.5 N 7 11 4 6 1008.5 1008.4 0.0
31/09:30am 19.9 18.0 8.9 49 5.8 N 9 13 5 7 1008.2 1008.1 0.0
31/09:00am 15.9 15.4 12.1 78 2.1 N 6 7 3 4 1009.1 1009.0 0.0
31/08:30am 12.2 11.8 9.9 86 1.2 N 2 4 1 2 1009.5 1009.4 0.0
31/08:00am 11.4 10.6 9.7 89 0.9 NNE 4 6 2 3 1009.6 1009.5 0.0
31/07:30am 10.2 9.3 9.3 94 0.5 N 4 7 2 4 1009.8 1009.7 0.0
31/07:00am 8.7 8.3 8.1 96 0.3 CALM 0 0 0 0 1010.1 1010.0 0.0
31/06:30am 8.4 6.8 7.8 96 0.3 N 6 7 3 4 1009.9 1009.8 0.0
31/06:00am 8.8 6.7 8.4 97 0.2 N 9 11 5 6 1010.0 1009.9 0.0
31/05:30am 9.2 7.2 8.7 97 0.2 N 9 13 5 7 1010.2 1010.1 0.0
31/05:00am 9.3 7.3 8.5 95 0.4 N 9 11 5 6 1010.1 1010.0 0.0
31/04:30am 9.6 7.2 8.8 95 0.4 NNE 11 13 6 7 1010.3 1010.3 0.0
31/04:00am 9.7 8.1 8.8 94 0.4 NNE 7 9 4 5 1010.7 1010.7 0.0
31/03:30am 10.5 7.9 9.4 93 0.6 NNE 13 19 7 10 1010.9 1010.9 0.0
31/03:00am 10.9 9.2 9.8 93 0.6 NNE 9 13 5 7 1011.3 1011.3 0.0
31/02:30am 11.0 9.8 10.2 95 0.4 NE 7 9 4 5 1012.0 1011.9 0.0
31/02:00am 10.9 9.3 10.3 96 0.3 NE 9 13 5 7 1012.4 1012.3 0.0
31/01:30am 9.9 8.1 9.4 97 0.3 NE 9 13 5 7 1013.1 1013.0 0.0
31/01:00am 8.3 6.5 7.9 97 0.2 N 7 9 4 5 1013.7 1013.6 0.0
31/12:30am 8.0 6.1 7.4 96 0.3 N 7 9 4 5 1013.9 1013.9 0.0
31/12:00am 8.5 6.8 7.7 95 0.4 N 6 7 3 4 1014.2 1014.2 0.0
 
Date/Time
EDT
Tmp

°C
App
Tmp
°C
Dew
Point
°C
Rel
Hum
%
Delta-T

°C
Wind Press
QNH
hPa
Press
MSL
hPa
Rain
since
9 am
mm
Dir
 
Spd
km/h
Gust
km/h
Spd
kts
Gust
kts
30/11:30pm 8.8 7.6 7.9 94 0.4 NNE 4 4 2 2 1014.3 1014.3 0.0
30/11:00pm 10.0 9.0 8.9 93 0.5 NE 4 6 2 3 1014.4 1014.4 0.0
30/10:30pm 10.2 9.2 8.8 91 0.7 ENE 4 6 2 3 1014.5 1014.5 0.0
30/10:00pm 10.6 9.0 8.9 89 0.9 E 7 9 4 5 1014.2 1014.2 0.0
30/09:30pm 11.0 9.4 8.9 87 1.1 E 7 11 4 6 1014.1 1014.1 0.0
30/09:00pm 11.7 9.9 9.3 85 1.2 E 9 11 5 6 1013.8 1013.7 0.0
30/08:30pm 12.3 10.0 9.1 81 1.6 E 11 17 6 9 1013.7 1013.6 0.0
30/08:00pm 13.1 10.9 9.5 79 1.9 ESE 11 15 6 8 1013.6 1013.5 0.0
30/07:30pm 14.9 12.4 9.7 71 2.7 ESE 13 19 7 10 1013.3 1013.2 0.0
30/07:00pm 16.8 13.4 9.2 61 4.0 SE 17 20 9 11 1012.9 1012.8 0.0
30/06:30pm 21.2 18.2 5.9 37 7.7 W 11 15 6 8 1012.7 1012.6 0.0
30/06:00pm 22.1 19.9 6.3 36 8.1 W 7 13 4 7 1012.7 1012.6 0.0
30/05:30pm 21.7 18.3 6.0 36 8.0 W 13 24 7 13 1012.7 1012.6 0.0
30/05:00pm 21.9 18.9 6.2 36 8.0 W 11 20 6 11 1012.9 1012.8 0.0
30/04:30pm 21.9 18.2 6.2 36 8.0 W 15 26 8 14 1013.0 1012.9 0.0
30/04:00pm 21.3 18.1 6.8 39 7.5 W 13 22 7 12 1013.1 1013.0 0.0
30/03:30pm 20.7 17.4 6.6 40 7.2 W 13 19 7 10 1013.2 1013.1 0.0
30/03:00pm 20.1 16.8 6.5 41 6.9 W 13 26 7 14 1013.4 1013.3 0.0
30/02:30pm 19.5 15.8 6.3 42 6.7 W 15 24 8 13 1013.7 1013.6 0.0
30/02:00pm 19.0 15.7 6.2 43 6.4 W 13 22 7 12 1013.9 1013.9 0.0
30/01:30pm 19.0 16.6 6.8 45 6.2 SW 9 19 5 10 1014.1 1014.1 0.0
30/01:00pm 18.3 15.2 7.1 48 5.7 WSW 13 22 7 12 1014.5 1014.5 0.0
30/12:30pm 18.3 15.1 6.8 47 5.8 WNW 13 24 7 13 1014.7 1014.7 0.0
30/12:00pm 16.8 13.5 6.3 50 5.2 W 13 20 7 11 1014.9 1014.9 0.0
30/11:30am 15.9 12.2 6.1 52 4.8 W 15 22 8 12 1015.3 1015.3 0.0
30/11:00am 15.7 12.0 6.4 54 4.6 WNW 15 20 8 11 1015.6 1015.6 0.0
30/10:30am 14.9 10.9 6.5 57 4.1 WNW 17 26 9 14 1015.8 1015.8 0.0
30/10:00am 13.4 9.3 6.3 62 3.4 W 17 26 9 14 1016.1 1016.0 0.0
30/09:30am 13.5 10.7 6.8 64 3.3 W 11 22 6 12 1016.2 1016.1 0.0
30/09:00am 12.2 9.0 6.9 70 2.6 W 13 20 7 11 1016.1 1016.0 0.0
30/08:30am 12.0 8.4 6.9 71 2.5 W 15 22 8 12 1015.7 1015.7 0.0
30/08:00am 11.6 9.6 8.6 82 1.5 W 9 17 5 9 1015.6 1015.6 0.0
30/07:30am 9.5 7.7 7.9 90 0.8 NW 7 11 4 6 1015.5 1015.5 0.0
30/07:00am 8.3 6.3 7.1 92 0.6 NNW 7 9 4 5 1015.1 1015.1 0.0
30/06:30am 8.8 6.9 7.4 91 0.7 NW 7 9 4 5 1014.9 1014.9 0.0
30/06:00am 9.1 7.2 7.5 90 0.8 NW 7 9 4 5 1014.4 1014.4 0.0
30/05:30am 9.3 7.3 7.3 87 1.0 NW 7 9 4 5 1014.5 1014.5 0.0
30/05:00am 10.2 8.6 8.0 86 1.1 WNW 6 7 3 4 1014.8 1014.8 0.0
30/04:30am 10.4 8.6 8.0 85 1.2 WNW 7 11 4 6 1014.7 1014.7 0.0
30/04:00am 10.7 9.0 8.5 86 1.1 WNW 7 9 4 5 1014.6 1014.6 0.0
30/03:30am 10.9 9.3 8.8 87 1.1 NW 7 11 4 6 1014.5 1014.5 0.0
30/03:00am 11.3 10.0 9.2 87 1.1 NW 6 9 3 5 1014.8 1014.8 0.0
30/02:30am 11.5 10.6 9.4 87 1.1 NW 4 6 2 3 1015.0 1015.0 0.0
30/02:00am 11.6 10.3 9.3 86 1.2 NW 6 9 3 5 1015.3 1015.3 0.0
30/01:30am 11.8 10.4 9.5 86 1.2 WNW 7 9 4 5 1015.6 1015.6 0.0
30/01:00am 12.1 10.4 9.7 85 1.2 W 9 15 5 8 1016.1 1016.0 0.0
30/12:30am 12.0 10.9 10.1 88 1.0 NW 6 13 3 7 1016.6 1016.5 0.0
30/12:00am 11.7 10.9 9.6 87 1.1 NW 4 6 2 3 1016.7 1016.6 0.0
 
Date/Time
EDT
Tmp

°C
App
Tmp
°C
Dew
Point
°C
Rel
Hum
%
Delta-T

°C
Wind Press
QNH
hPa
Press
MSL
hPa
Rain
since
9 am
mm
Dir
 
Spd
km/h
Gust
km/h
Spd
kts
Gust
kts
29/11:30pm 11.7 10.1 10.3 91 0.7 W 9 13 5 7 1016.8 1016.7 0.0
29/11:00pm 10.9 9.6 9.3 90 0.8 W 6 9 3 5 1016.8 1016.7 0.0
29/10:30pm 11.0 9.7 9.3 89 0.9 WNW 6 7 3 4 1017.1 1017.0 0.0
29/10:00pm 11.5 11.0 9.2 86 1.2 W 2 4 1 2 1017.1 1017.0 0.0
29/09:30pm 12.2 10.9 9.2 82 1.5 SW 6 11 3 6 1016.8 1016.7 0.0
29/09:00pm 13.5 11.2 9.0 74 2.3 SW 11 15 6 8 1016.6 1016.5 0.0
29/08:30pm 14.6 13.9 8.5 67 3.1 SW 2 4 1 2 1016.2 1016.1 0.0
29/08:00pm 15.4 13.8 8.6 64 3.5 SW 7 13 4 7 1015.8 1015.8 0.0
29/07:30pm 16.8 14.9 9.0 60 4.1 SW 9 15 5 8 1015.5 1015.5 0.0
29/07:00pm 17.7 14.6 8.8 56 4.7 SW 15 22 8 12 1015.0 1015.0 0.0
29/06:30pm 18.8 16.1 9.0 53 5.2 WSW 13 22 7 12 1014.9 1014.9 0.0

Latest Capital City Observations: Canberra | Sydney | Melbourne | Brisbane | Adelaide | Perth | Hobart | Darwin

Other Formats:

Comma delimited format used in spreadsheet applications
http://www.bom.gov.au/fwo/IDV60901/IDV60901.94863.axf

JavaScript Object Notation format (JSON) in row-major order
http://www.bom.gov.au/fwo/IDV60901/IDV60901.94863.json